sensor_id;sensor_type;location;lat;lon;timestamp;P1;durP1;ratioP1;P2;durP2;ratioP2
15748;SDS011;7976;52.526;13.326;2023-01-28T00:01:17;9.47;;;2.90;;
15748;SDS011;7976;52.526;13.326;2023-01-28T00:03:47;11.00;;;3.67;;
15748;SDS011;7976;52.526;13.326;2023-01-28T00:06:15;12.68;;;3.47;;
15748;SDS011;7976;52.526;13.326;2023-01-28T00:08:43;9.77;;;2.77;;
15748;SDS011;7976;52.526;13.326;2023-01-28T00:11:11;9.13;;;2.73;;
15748;SDS011;7976;52.526;13.326;2023-01-28T00:13:39;15.30;;;4.93;;
15748;SDS011;7976;52.526;13.326;2023-01-28T00:16:07;14.33;;;4.40;;
15748;SDS011;7976;52.526;13.326;2023-01-28T00:18:34;12.33;;;3.47;;
15748;SDS011;7976;52.526;13.326;2023-01-28T00:21:05;13.10;;;3.03;;
15748;SDS011;7976;52.526;13.326;2023-01-28T00:23:36;14.60;;;4.43;;
15748;SDS011;7976;52.526;13.326;2023-01-28T00:26:05;12.90;;;3.47;;
15748;SDS011;7976;52.526;13.326;2023-01-28T00:28:38;9.35;;;3.00;;
15748;SDS011;7976;52.526;13.326;2023-01-28T00:31:05;8.93;;;2.47;;
15748;SDS011;7976;52.526;13.326;2023-01-28T00:33:33;8.70;;;2.72;;
15748;SDS011;7976;52.526;13.326;2023-01-28T00:36:01;9.55;;;2.42;;
15748;SDS011;7976;52.526;13.326;2023-01-28T00:38:31;12.80;;;3.30;;
15748;SDS011;7976;52.526;13.326;2023-01-28T00:41:05;13.13;;;3.17;;
15748;SDS011;7976;52.526;13.326;2023-01-28T00:43:34;12.97;;;3.47;;
15748;SDS011;7976;52.526;13.326;2023-01-28T00:46:01;11.20;;;2.53;;
15748;SDS011;7976;52.526;13.326;2023-01-28T00:48:28;11.73;;;3.77;;
15748;SDS011;7976;52.526;13.326;2023-01-28T00:50:55;22.47;;;7.80;;
15748;SDS011;7976;52.526;13.326;2023-01-28T00:53:23;10.27;;;3.13;;
15748;SDS011;7976;52.526;13.326;2023-01-28T00:55:51;16.70;;;4.83;;
15748;SDS011;7976;52.526;13.326;2023-01-28T00:58:18;12.07;;;2.90;;
15748;SDS011;7976;52.526;13.326;2023-01-28T01:00:45;9.73;;;3.20;;
15748;SDS011;7976;52.526;13.326;2023-01-28T01:03:12;11.23;;;3.23;;
15748;SDS011;7976;52.526;13.326;2023-01-28T01:05:39;11.77;;;2.90;;
15748;SDS011;7976;52.526;13.326;2023-01-28T01:08:06;10.80;;;3.00;;
15748;SDS011;7976;52.526;13.326;2023-01-28T01:10:37;11.20;;;3.70;;
15748;SDS011;7976;52.526;13.326;2023-01-28T01:13:05;9.33;;;3.20;;
15748;SDS011;7976;52.526;13.326;2023-01-28T01:15:33;7.83;;;2.47;;
15748;SDS011;7976;52.526;13.326;2023-01-28T01:18:01;8.93;;;2.83;;
15748;SDS011;7976;52.526;13.326;2023-01-28T01:20:30;8.50;;;2.53;;
15748;SDS011;7976;52.526;13.326;2023-01-28T01:22:58;12.50;;;3.17;;
15748;SDS011;7976;52.526;13.326;2023-01-28T01:25:25;12.60;;;3.47;;
15748;SDS011;7976;52.526;13.326;2023-01-28T01:27:53;9.83;;;2.90;;
15748;SDS011;7976;52.526;13.326;2023-01-28T01:30:20;10.77;;;2.80;;
15748;SDS011;7976;52.526;13.326;2023-01-28T01:32:47;10.20;;;3.37;;
15748;SDS011;7976;52.526;13.326;2023-01-28T01:35:14;13.73;;;3.80;;
15748;SDS011;7976;52.526;13.326;2023-01-28T01:37:42;10.07;;;2.97;;
15748;SDS011;7976;52.526;13.326;2023-01-28T01:40:10;13.33;;;3.23;;
15748;SDS011;7976;52.526;13.326;2023-01-28T01:42:37;9.63;;;3.07;;
15748;SDS011;7976;52.526;13.326;2023-01-28T01:45:06;11.65;;;3.58;;
15748;SDS011;7976;52.526;13.326;2023-01-28T01:47:41;7.60;;;2.58;;
15748;SDS011;7976;52.526;13.326;2023-01-28T01:50:15;11.17;;;2.57;;
15748;SDS011;7976;52.526;13.326;2023-01-28T01:52:51;9.00;;;2.57;;
15748;SDS011;7976;52.526;13.326;2023-01-28T01:55:26;9.45;;;2.75;;
15748;SDS011;7976;52.526;13.326;2023-01-28T01:57:57;7.63;;;2.57;;
15748;SDS011;7976;52.526;13.326;2023-01-28T02:00:33;10.27;;;2.37;;
15748;SDS011;7976;52.526;13.326;2023-01-28T02:03:00;9.82;;;3.38;;
15748;SDS011;7976;52.526;13.326;2023-01-28T02:05:27;10.00;;;3.28;;
15748;SDS011;7976;52.526;13.326;2023-01-28T02:07:55;21.00;;;7.57;;
15748;SDS011;7976;52.526;13.326;2023-01-28T02:10:45;11.30;;;2.47;;
15748;SDS011;7976;52.526;13.326;2023-01-28T02:13:14;9.13;;;2.70;;
15748;SDS011;7976;52.526;13.326;2023-01-28T02:15:46;14.93;;;3.53;;
15748;SDS011;7976;52.526;13.326;2023-01-28T02:18:14;8.87;;;2.37;;
15748;SDS011;7976;52.526;13.326;2023-01-28T02:20:46;9.75;;;2.97;;
15748;SDS011;7976;52.526;13.326;2023-01-28T02:23:43;9.33;;;2.83;;
15748;SDS011;7976;52.526;13.326;2023-01-28T02:26:31;13.57;;;3.97;;
15748;SDS011;7976;52.526;13.326;2023-01-28T02:29:25;10.73;;;3.27;;
15748;SDS011;7976;52.526;13.326;2023-01-28T02:32:00;14.38;;;3.50;;
15748;SDS011;7976;52.526;13.326;2023-01-28T02:34:37;16.15;;;4.40;;
15748;SDS011;7976;52.526;13.326;2023-01-28T02:37:13;12.47;;;3.67;;
15748;SDS011;7976;52.526;13.326;2023-01-28T02:39:47;11.18;;;2.60;;
15748;SDS011;7976;52.526;13.326;2023-01-28T02:42:18;14.40;;;4.60;;
15748;SDS011;7976;52.526;13.326;2023-01-28T02:44:52;12.02;;;3.13;;
15748;SDS011;7976;52.526;13.326;2023-01-28T02:47:20;11.70;;;3.33;;
15748;SDS011;7976;52.526;13.326;2023-01-28T02:50:06;6.83;;;2.20;;
15748;SDS011;7976;52.526;13.326;2023-01-28T02:52:45;10.80;;;3.50;;
15748;SDS011;7976;52.526;13.326;2023-01-28T02:55:50;10.93;;;3.40;;
15748;SDS011;7976;52.526;13.326;2023-01-28T02:58:29;10.27;;;2.30;;
15748;SDS011;7976;52.526;13.326;2023-01-28T03:01:09;9.30;;;2.70;;
15748;SDS011;7976;52.526;13.326;2023-01-28T03:03:50;9.97;;;2.60;;
15748;SDS011;7976;52.526;13.326;2023-01-28T03:06:27;7.97;;;2.40;;
15748;SDS011;7976;52.526;13.326;2023-01-28T03:09:03;8.77;;;2.42;;
15748;SDS011;7976;52.526;13.326;2023-01-28T03:11:49;10.27;;;2.67;;
15748;SDS011;7976;52.526;13.326;2023-01-28T03:14:39;9.90;;;2.50;;
15748;SDS011;7976;52.526;13.326;2023-01-28T03:17:27;9.03;;;2.80;;
15748;SDS011;7976;52.526;13.326;2023-01-28T03:20:21;8.48;;;2.58;;
15748;SDS011;7976;52.526;13.326;2023-01-28T03:23:10;10.43;;;2.55;;
15748;SDS011;7976;52.526;13.326;2023-01-28T03:26:06;13.37;;;2.83;;
15748;SDS011;7976;52.526;13.326;2023-01-28T03:28:54;11.20;;;2.63;;
15748;SDS011;7976;52.526;13.326;2023-01-28T03:31:49;11.60;;;2.60;;
15748;SDS011;7976;52.526;13.326;2023-01-28T03:34:37;8.33;;;2.50;;
15748;SDS011;7976;52.526;13.326;2023-01-28T03:37:22;8.68;;;2.60;;
15748;SDS011;7976;52.526;13.326;2023-01-28T03:40:04;13.10;;;2.87;;
15748;SDS011;7976;52.526;13.326;2023-01-28T03:42:33;7.75;;;2.05;;
15748;SDS011;7976;52.526;13.326;2023-01-28T03:45:22;11.50;;;2.33;;
15748;SDS011;7976;52.526;13.326;2023-01-28T03:47:49;8.13;;;2.13;;
15748;SDS011;7976;52.526;13.326;2023-01-28T03:50:17;11.30;;;2.43;;
15748;SDS011;7976;52.526;13.326;2023-01-28T03:52:52;8.02;;;2.53;;
15748;SDS011;7976;52.526;13.326;2023-01-28T03:55:41;11.03;;;3.00;;
15748;SDS011;7976;52.526;13.326;2023-01-28T03:58:10;11.70;;;2.83;;
15748;SDS011;7976;52.526;13.326;2023-01-28T04:00:38;10.65;;;2.55;;
15748;SDS011;7976;52.526;13.326;2023-01-28T04:03:07;8.60;;;2.47;;
15748;SDS011;7976;52.526;13.326;2023-01-28T04:05:42;10.33;;;3.10;;
15748;SDS011;7976;52.526;13.326;2023-01-28T04:08:10;7.13;;;2.33;;
15748;SDS011;7976;52.526;13.326;2023-01-28T04:10:52;8.47;;;2.13;;
15748;SDS011;7976;52.526;13.326;2023-01-28T04:13:25;12.57;;;2.83;;
15748;SDS011;7976;52.526;13.326;2023-01-28T04:15:52;6.10;;;1.77;;
15748;SDS011;7976;52.526;13.326;2023-01-28T04:18:19;7.73;;;2.20;;
15748;SDS011;7976;52.526;13.326;2023-01-28T04:20:53;11.00;;;2.72;;
15748;SDS011;7976;52.526;13.326;2023-01-28T04:23:19;9.45;;;1.98;;
15748;SDS011;7976;52.526;13.326;2023-01-28T04:25:48;7.72;;;2.13;;
15748;SDS011;7976;52.526;13.326;2023-01-28T04:28:17;7.90;;;1.90;;
15748;SDS011;7976;52.526;13.326;2023-01-28T04:30:44;11.30;;;2.47;;
15748;SDS011;7976;52.526;13.326;2023-01-28T04:33:22;9.35;;;2.50;;
15748;SDS011;7976;52.526;13.326;2023-01-28T04:36:22;5.47;;;1.70;;
15748;SDS011;7976;52.526;13.326;2023-01-28T04:39:20;7.10;;;2.00;;
15748;SDS011;7976;52.526;13.326;2023-01-28T04:42:07;10.27;;;2.80;;
15748;SDS011;7976;52.526;13.326;2023-01-28T04:44:53;9.37;;;2.20;;
15748;SDS011;7976;52.526;13.326;2023-01-28T04:47:36;6.15;;;1.70;;
15748;SDS011;7976;52.526;13.326;2023-01-28T04:50:22;7.97;;;1.83;;
15748;SDS011;7976;52.526;13.326;2023-01-28T04:53:06;8.97;;;2.17;;
15748;SDS011;7976;52.526;13.326;2023-01-28T04:55:55;7.77;;;1.97;;
15748;SDS011;7976;52.526;13.326;2023-01-28T04:58:26;5.63;;;1.70;;
15748;SDS011;7976;52.526;13.326;2023-01-28T05:01:00;8.57;;;2.63;;
15748;SDS011;7976;52.526;13.326;2023-01-28T05:03:28;7.93;;;2.80;;
15748;SDS011;7976;52.526;13.326;2023-01-28T05:05:55;8.33;;;2.33;;
15748;SDS011;7976;52.526;13.326;2023-01-28T05:08:53;8.93;;;2.17;;
15748;SDS011;7976;52.526;13.326;2023-01-28T05:11:20;6.33;;;2.03;;
15748;SDS011;7976;52.526;13.326;2023-01-28T05:13:52;9.18;;;2.22;;
15748;SDS011;7976;52.526;13.326;2023-01-28T05:16:20;11.25;;;3.70;;
15748;SDS011;7976;52.526;13.326;2023-01-28T05:18:46;7.70;;;2.60;;
15748;SDS011;7976;52.526;13.326;2023-01-28T05:21:17;8.37;;;2.83;;
15748;SDS011;7976;52.526;13.326;2023-01-28T05:23:49;6.93;;;1.97;;
15748;SDS011;7976;52.526;13.326;2023-01-28T05:26:18;9.90;;;2.23;;
15748;SDS011;7976;52.526;13.326;2023-01-28T05:28:45;8.70;;;2.60;;
15748;SDS011;7976;52.526;13.326;2023-01-28T05:31:13;8.23;;;2.30;;
15748;SDS011;7976;52.526;13.326;2023-01-28T05:33:41;12.40;;;3.50;;
15748;SDS011;7976;52.526;13.326;2023-01-28T05:36:10;8.17;;;2.67;;
15748;SDS011;7976;52.526;13.326;2023-01-28T05:38:38;10.18;;;2.72;;
15748;SDS011;7976;52.526;13.326;2023-01-28T05:41:05;8.73;;;2.35;;
15748;SDS011;7976;52.526;13.326;2023-01-28T05:43:33;9.97;;;2.50;;
15748;SDS011;7976;52.526;13.326;2023-01-28T05:46:19;9.33;;;2.87;;
15748;SDS011;7976;52.526;13.326;2023-01-28T05:49:01;10.35;;;3.30;;
15748;SDS011;7976;52.526;13.326;2023-01-28T05:52:06;11.38;;;3.90;;
15748;SDS011;7976;52.526;13.326;2023-01-28T05:54:34;22.45;;;5.03;;
15748;SDS011;7976;52.526;13.326;2023-01-28T05:57:01;15.75;;;5.10;;
15748;SDS011;7976;52.526;13.326;2023-01-28T05:59:30;13.52;;;4.57;;
15748;SDS011;7976;52.526;13.326;2023-01-28T06:01:57;13.75;;;5.15;;
15748;SDS011;7976;52.526;13.326;2023-01-28T06:04:24;14.63;;;5.00;;
15748;SDS011;7976;52.526;13.326;2023-01-28T06:06:51;15.53;;;5.00;;
15748;SDS011;7976;52.526;13.326;2023-01-28T06:09:18;14.38;;;4.45;;
15748;SDS011;7976;52.526;13.326;2023-01-28T06:11:45;15.47;;;4.97;;
15748;SDS011;7976;52.526;13.326;2023-01-28T06:14:14;15.63;;;5.38;;
15748;SDS011;7976;52.526;13.326;2023-01-28T06:16:51;14.82;;;4.80;;
15748;SDS011;7976;52.526;13.326;2023-01-28T06:19:24;17.03;;;4.80;;
15748;SDS011;7976;52.526;13.326;2023-01-28T06:21:51;13.20;;;4.43;;
15748;SDS011;7976;52.526;13.326;2023-01-28T06:24:18;13.07;;;4.50;;
15748;SDS011;7976;52.526;13.326;2023-01-28T06:26:45;13.43;;;4.72;;
15748;SDS011;7976;52.526;13.326;2023-01-28T06:29:13;12.90;;;4.43;;
15748;SDS011;7976;52.526;13.326;2023-01-28T06:31:40;13.07;;;4.05;;
15748;SDS011;7976;52.526;13.326;2023-01-28T06:34:09;11.18;;;3.90;;
15748;SDS011;7976;52.526;13.326;2023-01-28T06:36:37;10.82;;;3.20;;
15748;SDS011;7976;52.526;13.326;2023-01-28T06:39:03;11.75;;;3.40;;
15748;SDS011;7976;52.526;13.326;2023-01-28T06:41:30;10.82;;;3.53;;
15748;SDS011;7976;52.526;13.326;2023-01-28T06:43:57;11.88;;;3.30;;
15748;SDS011;7976;52.526;13.326;2023-01-28T06:46:24;9.40;;;2.85;;
15748;SDS011;7976;52.526;13.326;2023-01-28T06:48:51;11.15;;;3.30;;
15748;SDS011;7976;52.526;13.326;2023-01-28T06:51:19;12.27;;;3.22;;
15748;SDS011;7976;52.526;13.326;2023-01-28T06:53:46;13.43;;;3.30;;
15748;SDS011;7976;52.526;13.326;2023-01-28T06:56:13;11.48;;;3.10;;
15748;SDS011;7976;52.526;13.326;2023-01-28T06:58:40;5.95;;;1.85;;
15748;SDS011;7976;52.526;13.326;2023-01-28T07:01:07;7.65;;;1.90;;
15748;SDS011;7976;52.526;13.326;2023-01-28T07:03:33;6.50;;;2.05;;
15748;SDS011;7976;52.526;13.326;2023-01-28T07:06:02;6.53;;;2.03;;
15748;SDS011;7976;52.526;13.326;2023-01-28T07:08:31;10.00;;;2.53;;
15748;SDS011;7976;52.526;13.326;2023-01-28T07:10:58;8.55;;;2.33;;
15748;SDS011;7976;52.526;13.326;2023-01-28T07:13:24;7.57;;;2.27;;
15748;SDS011;7976;52.526;13.326;2023-01-28T07:15:51;7.90;;;2.70;;
15748;SDS011;7976;52.526;13.326;2023-01-28T07:18:18;9.38;;;2.40;;
15748;SDS011;7976;52.526;13.326;2023-01-28T07:20:45;7.47;;;2.42;;
15748;SDS011;7976;52.526;13.326;2023-01-28T07:23:12;7.28;;;2.13;;
15748;SDS011;7976;52.526;13.326;2023-01-28T07:25:40;10.15;;;2.40;;
15748;SDS011;7976;52.526;13.326;2023-01-28T07:28:07;7.68;;;2.25;;
15748;SDS011;7976;52.526;13.326;2023-01-28T07:30:33;8.95;;;3.00;;
15748;SDS011;7976;52.526;13.326;2023-01-28T07:33:00;8.35;;;2.95;;
15748;SDS011;7976;52.526;13.326;2023-01-28T07:35:27;9.15;;;2.47;;
15748;SDS011;7976;52.526;13.326;2023-01-28T07:37:56;11.13;;;2.63;;
15748;SDS011;7976;52.526;13.326;2023-01-28T07:40:26;8.00;;;2.08;;
15748;SDS011;7976;52.526;13.326;2023-01-28T07:42:54;6.47;;;1.85;;
15748;SDS011;7976;52.526;13.326;2023-01-28T07:45:22;7.60;;;1.98;;
15748;SDS011;7976;52.526;13.326;2023-01-28T07:47:53;10.82;;;2.13;;
15748;SDS011;7976;52.526;13.326;2023-01-28T07:50:22;7.38;;;2.20;;
15748;SDS011;7976;52.526;13.326;2023-01-28T07:52:49;9.00;;;2.40;;
15748;SDS011;7976;52.526;13.326;2023-01-28T07:55:16;9.38;;;1.90;;
15748;SDS011;7976;52.526;13.326;2023-01-28T07:57:47;9.52;;;2.45;;
15748;SDS011;7976;52.526;13.326;2023-01-28T08:00:18;6.32;;;2.20;;
15748;SDS011;7976;52.526;13.326;2023-01-28T08:02:46;6.40;;;1.77;;
15748;SDS011;7976;52.526;13.326;2023-01-28T08:05:15;7.10;;;2.08;;
15748;SDS011;7976;52.526;13.326;2023-01-28T08:07:43;7.73;;;1.93;;
15748;SDS011;7976;52.526;13.326;2023-01-28T08:10:12;7.80;;;2.35;;
15748;SDS011;7976;52.526;13.326;2023-01-28T08:12:41;5.72;;;1.77;;
15748;SDS011;7976;52.526;13.326;2023-01-28T08:15:18;14.20;;;4.70;;
15748;SDS011;7976;52.526;13.326;2023-01-28T08:17:45;9.45;;;2.60;;
15748;SDS011;7976;52.526;13.326;2023-01-28T08:20:12;12.88;;;2.42;;
15748;SDS011;7976;52.526;13.326;2023-01-28T08:22:39;8.63;;;2.45;;
15748;SDS011;7976;52.526;13.326;2023-01-28T08:25:07;5.93;;;2.05;;
15748;SDS011;7976;52.526;13.326;2023-01-28T08:27:34;6.90;;;2.00;;
15748;SDS011;7976;52.526;13.326;2023-01-28T08:30:01;16.10;;;4.93;;
15748;SDS011;7976;52.526;13.326;2023-01-28T08:32:29;10.25;;;2.50;;
15748;SDS011;7976;52.526;13.326;2023-01-28T08:34:56;11.38;;;2.80;;
15748;SDS011;7976;52.526;13.326;2023-01-28T08:37:23;6.68;;;1.48;;
15748;SDS011;7976;52.526;13.326;2023-01-28T08:39:50;8.10;;;2.42;;
15748;SDS011;7976;52.526;13.326;2023-01-28T08:42:17;8.60;;;1.60;;
15748;SDS011;7976;52.526;13.326;2023-01-28T08:44:44;7.57;;;1.92;;
15748;SDS011;7976;52.526;13.326;2023-01-28T08:47:12;5.82;;;1.60;;
15748;SDS011;7976;52.526;13.326;2023-01-28T08:49:40;8.88;;;2.38;;
15748;SDS011;7976;52.526;13.326;2023-01-28T08:52:07;4.47;;;1.40;;
15748;SDS011;7976;52.526;13.326;2023-01-28T08:54:35;4.45;;;1.35;;
15748;SDS011;7976;52.526;13.326;2023-01-28T08:57:01;5.53;;;1.30;;
15748;SDS011;7976;52.526;13.326;2023-01-28T08:59:29;3.00;;;1.00;;
15748;SDS011;7976;52.526;13.326;2023-01-28T09:01:55;4.35;;;1.25;;
15748;SDS011;7976;52.526;13.326;2023-01-28T09:04:22;5.65;;;1.55;;
15748;SDS011;7976;52.526;13.326;2023-01-28T09:06:50;5.32;;;1.60;;
15748;SDS011;7976;52.526;13.326;2023-01-28T09:09:18;4.70;;;1.60;;
15748;SDS011;7976;52.526;13.326;2023-01-28T09:11:45;9.55;;;2.40;;
15748;SDS011;7976;52.526;13.326;2023-01-28T09:14:12;4.75;;;1.38;;
15748;SDS011;7976;52.526;13.326;2023-01-28T09:16:39;3.78;;;1.10;;
15748;SDS011;7976;52.526;13.326;2023-01-28T09:19:06;4.40;;;1.25;;
15748;SDS011;7976;52.526;13.326;2023-01-28T09:21:33;5.95;;;1.63;;
15748;SDS011;7976;52.526;13.326;2023-01-28T09:24:01;4.93;;;1.38;;
15748;SDS011;7976;52.526;13.326;2023-01-28T09:26:28;6.38;;;1.60;;
15748;SDS011;7976;52.526;13.326;2023-01-28T09:28:58;5.03;;;1.30;;
15748;SDS011;7976;52.526;13.326;2023-01-28T09:31:25;4.53;;;1.30;;
15748;SDS011;7976;52.526;13.326;2023-01-28T09:33:52;8.77;;;1.50;;
15748;SDS011;7976;52.526;13.326;2023-01-28T09:36:21;4.28;;;1.02;;
15748;SDS011;7976;52.526;13.326;2023-01-28T09:38:48;5.43;;;1.33;;
15748;SDS011;7976;52.526;13.326;2023-01-28T09:41:23;5.75;;;1.27;;
15748;SDS011;7976;52.526;13.326;2023-01-28T09:47:01;4.30;;;1.30;;
15748;SDS011;7976;52.526;13.326;2023-01-28T09:49:33;3.50;;;1.17;;
15748;SDS011;7976;52.526;13.326;2023-01-28T09:52:07;5.03;;;1.35;;
15748;SDS011;7976;52.526;13.326;2023-01-28T09:54:41;5.68;;;1.20;;
15748;SDS011;7976;52.526;13.326;2023-01-28T09:57:18;4.83;;;1.20;;
15748;SDS011;7976;52.526;13.326;2023-01-28T09:59:49;5.45;;;1.20;;
15748;SDS011;7976;52.526;13.326;2023-01-28T10:02:24;4.78;;;1.40;;
15748;SDS011;7976;52.526;13.326;2023-01-28T10:05:10;3.70;;;1.30;;
15748;SDS011;7976;52.526;13.326;2023-01-28T10:07:53;5.03;;;1.30;;
15748;SDS011;7976;52.526;13.326;2023-01-28T10:10:37;3.67;;;1.10;;
15748;SDS011;7976;52.526;13.326;2023-01-28T10:13:16;7.47;;;1.55;;
15748;SDS011;7976;52.526;13.326;2023-01-28T10:15:57;5.15;;;1.50;;
15748;SDS011;7976;52.526;13.326;2023-01-28T10:18:35;3.70;;;0.98;;
15748;SDS011;7976;52.526;13.326;2023-01-28T10:21:11;5.70;;;1.20;;
15748;SDS011;7976;52.526;13.326;2023-01-28T10:23:48;5.80;;;1.10;;
15748;SDS011;7976;52.526;13.326;2023-01-28T10:26:26;6.00;;;1.73;;
15748;SDS011;7976;52.526;13.326;2023-01-28T10:29:02;5.78;;;1.65;;
15748;SDS011;7976;52.526;13.326;2023-01-28T10:31:38;4.55;;;1.23;;
15748;SDS011;7976;52.526;13.326;2023-01-28T10:34:16;2.28;;;0.80;;
15748;SDS011;7976;52.526;13.326;2023-01-28T10:36:43;2.97;;;0.88;;
15748;SDS011;7976;52.526;13.326;2023-01-28T10:39:11;6.00;;;1.80;;
15748;SDS011;7976;52.526;13.326;2023-01-28T10:41:41;13.30;;;5.97;;
15748;SDS011;7976;52.526;13.326;2023-01-28T10:44:11;6.22;;;1.77;;
15748;SDS011;7976;52.526;13.326;2023-01-28T10:46:43;8.70;;;3.08;;
15748;SDS011;7976;52.526;13.326;2023-01-28T10:49:13;13.10;;;4.10;;
15748;SDS011;7976;52.526;13.326;2023-01-28T10:51:47;11.43;;;3.58;;
15748;SDS011;7976;52.526;13.326;2023-01-28T10:54:17;16.77;;;5.72;;
15748;SDS011;7976;52.526;13.326;2023-01-28T10:56:47;5.97;;;1.70;;
15748;SDS011;7976;52.526;13.326;2023-01-28T10:59:19;11.57;;;3.05;;
15748;SDS011;7976;52.526;13.326;2023-01-28T11:01:53;4.68;;;1.58;;
15748;SDS011;7976;52.526;13.326;2023-01-28T11:04:24;3.67;;;1.33;;
15748;SDS011;7976;52.526;13.326;2023-01-28T11:06:55;5.05;;;1.40;;
15748;SDS011;7976;52.526;13.326;2023-01-28T11:09:26;5.45;;;1.40;;
15748;SDS011;7976;52.526;13.326;2023-01-28T11:11:56;5.80;;;1.60;;
15748;SDS011;7976;52.526;13.326;2023-01-28T11:14:25;7.18;;;1.73;;
15748;SDS011;7976;52.526;13.326;2023-01-28T11:16:53;5.25;;;1.40;;
15748;SDS011;7976;52.526;13.326;2023-01-28T11:19:25;6.43;;;1.55;;
15748;SDS011;7976;52.526;13.326;2023-01-28T11:21:59;6.75;;;1.88;;
15748;SDS011;7976;52.526;13.326;2023-01-28T11:24:28;5.28;;;1.10;;
15748;SDS011;7976;52.526;13.326;2023-01-28T11:26:58;3.35;;;0.85;;
15748;SDS011;7976;52.526;13.326;2023-01-28T11:29:41;8.40;;;2.28;;
15748;SDS011;7976;52.526;13.326;2023-01-28T11:32:16;6.45;;;1.63;;
15748;SDS011;7976;52.526;13.326;2023-01-28T11:34:49;4.65;;;1.10;;
15748;SDS011;7976;52.526;13.326;2023-01-28T11:37:19;5.60;;;1.45;;
15748;SDS011;7976;52.526;13.326;2023-01-28T11:39:59;6.88;;;1.48;;
15748;SDS011;7976;52.526;13.326;2023-01-28T11:42:27;7.22;;;1.20;;
15748;SDS011;7976;52.526;13.326;2023-01-28T11:44:57;4.35;;;1.13;;
15748;SDS011;7976;52.526;13.326;2023-01-28T11:50:38;5.18;;;1.13;;
15748;SDS011;7976;52.526;13.326;2023-01-28T11:53:16;4.32;;;1.10;;
15748;SDS011;7976;52.526;13.326;2023-01-28T11:56:25;7.60;;;1.40;;
15748;SDS011;7976;52.526;13.326;2023-01-28T11:59:17;2.33;;;0.93;;
15748;SDS011;7976;52.526;13.326;2023-01-28T12:02:17;4.72;;;1.60;;
15748;SDS011;7976;52.526;13.326;2023-01-28T12:05:07;5.57;;;1.40;;
15748;SDS011;7976;52.526;13.326;2023-01-28T12:07:55;4.85;;;1.08;;
15748;SDS011;7976;52.526;13.326;2023-01-28T12:10:35;7.75;;;1.45;;
15748;SDS011;7976;52.526;13.326;2023-01-28T12:13:18;4.90;;;1.23;;
15748;SDS011;7976;52.526;13.326;2023-01-28T12:16:09;4.88;;;1.20;;
15748;SDS011;7976;52.526;13.326;2023-01-28T12:19:18;6.97;;;1.23;;
15748;SDS011;7976;52.526;13.326;2023-01-28T12:22:12;6.40;;;1.25;;
15748;SDS011;7976;52.526;13.326;2023-01-28T12:25:08;6.90;;;2.03;;
15748;SDS011;7976;52.526;13.326;2023-01-28T12:27:49;10.52;;;2.92;;
15748;SDS011;7976;52.526;13.326;2023-01-28T12:30:31;3.75;;;1.35;;
15748;SDS011;7976;52.526;13.326;2023-01-28T12:33:28;3.67;;;1.20;;
15748;SDS011;7976;52.526;13.326;2023-01-28T12:36:25;5.30;;;1.33;;
15748;SDS011;7976;52.526;13.326;2023-01-28T12:39:10;7.57;;;1.23;;
15748;SDS011;7976;52.526;13.326;2023-01-28T12:41:59;3.33;;;1.02;;
15748;SDS011;7976;52.526;13.326;2023-01-28T12:44:36;5.05;;;1.23;;
15748;SDS011;7976;52.526;13.326;2023-01-28T12:47:12;5.15;;;1.20;;
15748;SDS011;7976;52.526;13.326;2023-01-28T12:49:48;4.85;;;1.40;;
15748;SDS011;7976;52.526;13.326;2023-01-28T12:52:23;5.07;;;1.50;;
15748;SDS011;7976;52.526;13.326;2023-01-28T12:55:02;4.78;;;1.20;;
15748;SDS011;7976;52.526;13.326;2023-01-28T12:57:40;9.00;;;1.50;;
15748;SDS011;7976;52.526;13.326;2023-01-28T13:00:14;8.20;;;2.22;;
15748;SDS011;7976;52.526;13.326;2023-01-28T13:02:52;6.35;;;1.50;;
15748;SDS011;7976;52.526;13.326;2023-01-28T13:05:36;5.30;;;1.45;;
15748;SDS011;7976;52.526;13.326;2023-01-28T13:08:10;5.50;;;1.27;;
15748;SDS011;7976;52.526;13.326;2023-01-28T13:10:43;5.93;;;1.67;;
15748;SDS011;7976;52.526;13.326;2023-01-28T13:13:14;3.63;;;1.20;;
15748;SDS011;7976;52.526;13.326;2023-01-28T13:15:46;4.63;;;1.27;;
15748;SDS011;7976;52.526;13.326;2023-01-28T13:18:28;4.57;;;1.20;;
15748;SDS011;7976;52.526;13.326;2023-01-28T13:21:00;8.05;;;1.33;;
15748;SDS011;7976;52.526;13.326;2023-01-28T13:23:38;4.65;;;1.30;;
15748;SDS011;7976;52.526;13.326;2023-01-28T13:26:08;6.57;;;1.58;;
15748;SDS011;7976;52.526;13.326;2023-01-28T13:28:53;6.20;;;1.30;;
15748;SDS011;7976;52.526;13.326;2023-01-28T13:31:38;2.90;;;0.88;;
15748;SDS011;7976;52.526;13.326;2023-01-28T13:34:24;1.92;;;0.70;;
15748;SDS011;7976;52.526;13.326;2023-01-28T13:37:01;3.17;;;1.08;;
15748;SDS011;7976;52.526;13.326;2023-01-28T13:39:46;4.00;;;0.95;;
15748;SDS011;7976;52.526;13.326;2023-01-28T13:42:21;2.58;;;0.73;;
15748;SDS011;7976;52.526;13.326;2023-01-28T13:44:51;3.00;;;1.00;;
15748;SDS011;7976;52.526;13.326;2023-01-28T13:47:20;5.97;;;1.80;;
15748;SDS011;7976;52.526;13.326;2023-01-28T13:49:55;5.63;;;1.30;;
15748;SDS011;7976;52.526;13.326;2023-01-28T13:52:27;4.15;;;1.27;;
15748;SDS011;7976;52.526;13.326;2023-01-28T13:55:03;3.17;;;0.90;;
15748;SDS011;7976;52.526;13.326;2023-01-28T14:01:22;3.80;;;0.85;;
15748;SDS011;7976;52.526;13.326;2023-01-28T14:04:19;4.55;;;0.88;;
15748;SDS011;7976;52.526;13.326;2023-01-28T14:07:39;5.40;;;1.00;;
15748;SDS011;7976;52.526;13.326;2023-01-28T14:10:34;2.85;;;0.90;;
15748;SDS011;7976;52.526;13.326;2023-01-28T14:13:19;3.40;;;1.10;;
15748;SDS011;7976;52.526;13.326;2023-01-28T14:16:25;2.88;;;0.77;;
15748;SDS011;7976;52.526;13.326;2023-01-28T14:19:08;5.43;;;1.02;;
15748;SDS011;7976;52.526;13.326;2023-01-28T14:21:38;3.38;;;0.80;;
15748;SDS011;7976;52.526;13.326;2023-01-28T14:24:09;2.58;;;1.10;;
15748;SDS011;7976;52.526;13.326;2023-01-28T14:26:46;4.95;;;1.63;;
15748;SDS011;7976;52.526;13.326;2023-01-28T14:29:32;3.20;;;0.95;;
15748;SDS011;7976;52.526;13.326;2023-01-28T14:32:16;4.28;;;1.08;;
15748;SDS011;7976;52.526;13.326;2023-01-28T14:34:48;2.72;;;1.00;;
15748;SDS011;7976;52.526;13.326;2023-01-28T14:37:15;6.88;;;1.48;;
15748;SDS011;7976;52.526;13.326;2023-01-28T14:39:47;5.72;;;1.20;;
15748;SDS011;7976;52.526;13.326;2023-01-28T14:42:20;6.05;;;1.23;;
15748;SDS011;7976;52.526;13.326;2023-01-28T14:44:52;4.68;;;1.10;;
15748;SDS011;7976;52.526;13.326;2023-01-28T14:47:40;5.88;;;1.60;;
15748;SDS011;7976;52.526;13.326;2023-01-28T14:50:52;5.22;;;1.65;;
15748;SDS011;7976;52.526;13.326;2023-01-28T14:53:46;6.60;;;1.85;;
15748;SDS011;7976;52.526;13.326;2023-01-28T14:56:41;6.28;;;2.22;;
15748;SDS011;7976;52.526;13.326;2023-01-28T14:59:31;5.30;;;1.80;;
15748;SDS011;7976;52.526;13.326;2023-01-28T15:02:14;8.85;;;2.15;;
15748;SDS011;7976;52.526;13.326;2023-01-28T15:04:46;9.13;;;2.40;;
15748;SDS011;7976;52.526;13.326;2023-01-28T15:07:15;6.68;;;1.50;;
15748;SDS011;7976;52.526;13.326;2023-01-28T15:09:45;7.85;;;2.63;;
15748;SDS011;7976;52.526;13.326;2023-01-28T15:12:13;6.57;;;1.75;;
15748;SDS011;7976;52.526;13.326;2023-01-28T15:14:43;8.23;;;2.38;;
15748;SDS011;7976;52.526;13.326;2023-01-28T15:17:13;10.18;;;3.25;;
15748;SDS011;7976;52.526;13.326;2023-01-28T15:19:50;7.60;;;1.77;;
15748;SDS011;7976;52.526;13.326;2023-01-28T15:22:21;6.45;;;1.95;;
15748;SDS011;7976;52.526;13.326;2023-01-28T15:24:52;8.95;;;2.40;;
15748;SDS011;7976;52.526;13.326;2023-01-28T15:27:23;7.97;;;2.10;;
15748;SDS011;7976;52.526;13.326;2023-01-28T15:29:58;15.02;;;5.93;;
15748;SDS011;7976;52.526;13.326;2023-01-28T15:32:27;7.50;;;2.03;;
15748;SDS011;7976;52.526;13.326;2023-01-28T15:34:57;3.20;;;1.17;;